Blue Horizons Flying Club, Inc.

Radar AviationWeather DUATS TFRs Wunderground Accuweather Weather.com

alt : Radar

TAFs

KDTW 290908Z 2909/3012 18004KT P6SM SKC
   FM291400 19014G22KT P6SM BKN200
   FM291800 19018G27KT P6SM OVC150
   FM292300 20019G29KT 5SM -SHRASN OVC025
   FM300200 24015G24KT 3SM -DZ BR OVC007
   FM300600 23012KT P6SM OVC010
KCLE 290854Z 2909/3012 20008KT P6SM SKC
   FM291600 20015G25KT P6SM SCT100 BKN200
   FM300000 21018G28KT 5SM -SHRA OVC045
   FM300500 21018G28KT 6SM -SHRA OVC025
   FM300700 25018G28KT P6SM SCT006 OVC012
KFWA 290538Z 2906/3006 20008KT P6SM SCT250
   FM291400 18015G22KT P6SM BKN150
   FM291700 20020G30KT P6SM BKN060
     TEMPO 2921/3001 6SM -SHRA BKN035
   FM300100 24018G28KT P6SM BKN030
   FM300400 27014G22KT P6SM SCT030
KFDY 290536Z 2906/3006 23005KT P6SM SKC
   FM291400 20015G25KT P6SM SCT100 BKN200
   FM292200 21018G28KT 5SM -SHRA OVC045
   FM300300 21018G28KT 6SM -SHRA OVC025
KTOL 290536Z 2906/3006 23005KT P6SM SKC
   FM291500 20015G25KT P6SM SCT100 BKN200
   FM292200 21018G28KT 5SM -SHRA OVC045
   FM300300 21018G28KT 6SM -SHRA OVC025
KJXN 290532Z 2906/3006 19006KT P6SM SCT150
   FM291400 19011G18KT P6SM OVC150
   FM291900 20016G26KT P6SM VCSH BKN060
   FM292200 20016G26KT P6SM -SHRA OVC035
   FM300000 21014G20KT 6SM -DZ BR OVC009

METARs

KDUH 291015Z AUTO 20004KT 10SM CLR M03/M09 A3028 RMK AO2
KJXN 290956Z 21004KT 10SM CLR M08/M12 A3023 RMK AO2 SLP250 T10781117 $
KFWA 290954Z 19008KT 10SM CLR M04/M09 A3027 RMK AO2 SLP261 T10441089
KDTW 290953Z 18007KT 10SM CLR M06/M10 A3027 RMK AO2 SLP259 T10561100
KFDY 290953Z AUTO 20007KT 10SM CLR M06/M09 A3029 RMK AO2 SLP264 T10611094
KTDZ 290953Z AUTO 21006KT 10SM CLR M06/M10 A3030 RMK AO2 SLP267 T10561100 TSNO
KTOL 290952Z 21005KT 10SM CLR M05/M10 A3028 RMK AO2 SLP263 T10501100
KCLE 290951Z 21005KT 10SM CLR M07/M11 A3033 RMK AO2 SLP283 T10671111

alt : Satellite

alt : TFRs